sensor_id;sensor_type;location;lat;lon;timestamp;P1;durP1;ratioP1;P2;durP2;ratioP2
72406;SDS011;60396;47.550;18.828;2022-12-29T00:01:07;14.77;;;5.43;;
72406;SDS011;60396;47.550;18.828;2022-12-29T00:03:35;18.25;;;5.82;;
72406;SDS011;60396;47.550;18.828;2022-12-29T00:06:03;14.30;;;5.87;;
72406;SDS011;60396;47.550;18.828;2022-12-29T00:08:31;19.33;;;5.97;;
72406;SDS011;60396;47.550;18.828;2022-12-29T00:11:09;14.05;;;6.18;;
72406;SDS011;60396;47.550;18.828;2022-12-29T00:13:44;14.02;;;5.37;;
72406;SDS011;60396;47.550;18.828;2022-12-29T00:16:30;14.93;;;5.95;;
72406;SDS011;60396;47.550;18.828;2022-12-29T00:18:59;18.50;;;5.87;;
72406;SDS011;60396;47.550;18.828;2022-12-29T00:21:27;15.15;;;5.80;;
72406;SDS011;60396;47.550;18.828;2022-12-29T00:24:15;18.45;;;7.03;;
72406;SDS011;60396;47.550;18.828;2022-12-29T00:29:49;16.55;;;6.05;;
72406;SDS011;60396;47.550;18.828;2022-12-29T00:32:35;16.97;;;6.50;;
72406;SDS011;60396;47.550;18.828;2022-12-29T00:35:27;15.23;;;6.00;;
72406;SDS011;60396;47.550;18.828;2022-12-29T00:37:57;14.20;;;5.72;;
72406;SDS011;60396;47.550;18.828;2022-12-29T00:40:45;16.15;;;6.22;;
72406;SDS011;60396;47.550;18.828;2022-12-29T00:43:32;15.05;;;6.68;;
72406;SDS011;60396;47.550;18.828;2022-12-29T00:46:18;14.50;;;5.87;;
72406;SDS011;60396;47.550;18.828;2022-12-29T00:48:46;13.62;;;6.00;;
72406;SDS011;60396;47.550;18.828;2022-12-29T00:51:33;19.48;;;6.75;;
72406;SDS011;60396;47.550;18.828;2022-12-29T00:54:01;14.70;;;5.68;;
72406;SDS011;60396;47.550;18.828;2022-12-29T00:56:28;14.20;;;6.28;;
72406;SDS011;60396;47.550;18.828;2022-12-29T00:59:00;16.40;;;6.33;;
72406;SDS011;60396;47.550;18.828;2022-12-29T01:01:29;18.40;;;7.03;;
72406;SDS011;60396;47.550;18.828;2022-12-29T01:03:57;16.83;;;6.25;;
72406;SDS011;60396;47.550;18.828;2022-12-29T01:06:30;13.93;;;5.68;;
72406;SDS011;60396;47.550;18.828;2022-12-29T01:08:59;17.30;;;6.53;;
72406;SDS011;60396;47.550;18.828;2022-12-29T01:11:46;14.07;;;6.17;;
72406;SDS011;60396;47.550;18.828;2022-12-29T01:14:14;15.15;;;6.70;;
72406;SDS011;60396;47.550;18.828;2022-12-29T01:16:41;15.05;;;5.85;;
72406;SDS011;60396;47.550;18.828;2022-12-29T01:19:09;15.82;;;6.60;;
72406;SDS011;60396;47.550;18.828;2022-12-29T01:21:37;14.55;;;6.30;;
72406;SDS011;60396;47.550;18.828;2022-12-29T01:24:05;15.17;;;7.10;;
72406;SDS011;60396;47.550;18.828;2022-12-29T01:26:33;16.55;;;6.62;;
72406;SDS011;60396;47.550;18.828;2022-12-29T01:29:01;14.38;;;6.25;;
72406;SDS011;60396;47.550;18.828;2022-12-29T01:31:29;16.85;;;6.43;;
72406;SDS011;60396;47.550;18.828;2022-12-29T01:33:56;17.65;;;6.05;;
72406;SDS011;60396;47.550;18.828;2022-12-29T01:36:24;16.33;;;7.07;;
72406;SDS011;60396;47.550;18.828;2022-12-29T01:38:52;15.40;;;6.53;;
72406;SDS011;60396;47.550;18.828;2022-12-29T01:41:20;19.17;;;7.05;;
72406;SDS011;60396;47.550;18.828;2022-12-29T01:43:53;19.90;;;7.07;;
72406;SDS011;60396;47.550;18.828;2022-12-29T01:51:50;14.85;;;5.95;;
72406;SDS011;60396;47.550;18.828;2022-12-29T01:55:00;14.43;;;6.43;;
72406;SDS011;60396;47.550;18.828;2022-12-29T01:57:22;16.20;;;6.68;;
72406;SDS011;60396;47.550;18.828;2022-12-29T01:59:54;15.02;;;6.28;;
72406;SDS011;60396;47.550;18.828;2022-12-29T02:02:25;17.53;;;6.13;;
72406;SDS011;60396;47.550;18.828;2022-12-29T02:04:59;16.10;;;6.18;;
72406;SDS011;60396;47.550;18.828;2022-12-29T02:07:36;16.58;;;6.35;;
72406;SDS011;60396;47.550;18.828;2022-12-29T02:10:05;15.73;;;6.00;;
72406;SDS011;60396;47.550;18.828;2022-12-29T02:12:33;16.00;;;5.90;;
72406;SDS011;60396;47.550;18.828;2022-12-29T02:15:02;15.73;;;6.10;;
72406;SDS011;60396;47.550;18.828;2022-12-29T02:25:41;14.95;;;6.28;;
72406;SDS011;60396;47.550;18.828;2022-12-29T02:33:44;15.73;;;7.22;;
72406;SDS011;60396;47.550;18.828;2022-12-29T02:44:59;16.77;;;5.55;;
72406;SDS011;60396;47.550;18.828;2022-12-29T02:47:35;15.20;;;6.10;;
72406;SDS011;60396;47.550;18.828;2022-12-29T02:50:12;14.38;;;5.80;;
72406;SDS011;60396;47.550;18.828;2022-12-29T02:52:49;14.10;;;6.15;;
72406;SDS011;60396;47.550;18.828;2022-12-29T02:55:19;14.20;;;6.83;;
72406;SDS011;60396;47.550;18.828;2022-12-29T02:57:49;19.10;;;6.35;;
72406;SDS011;60396;47.550;18.828;2022-12-29T03:00:56;15.95;;;6.15;;
72406;SDS011;60396;47.550;18.828;2022-12-29T03:06:52;14.20;;;5.62;;
72406;SDS011;60396;47.550;18.828;2022-12-29T03:15:21;14.32;;;6.35;;
72406;SDS011;60396;47.550;18.828;2022-12-29T03:18:25;13.40;;;5.75;;
72406;SDS011;60396;47.550;18.828;2022-12-29T03:21:01;12.07;;;5.57;;
72406;SDS011;60396;47.550;18.828;2022-12-29T03:23:33;14.40;;;5.37;;
72406;SDS011;60396;47.550;18.828;2022-12-29T03:26:03;13.32;;;5.40;;
72406;SDS011;60396;47.550;18.828;2022-12-29T03:28:36;14.10;;;6.30;;
72406;SDS011;60396;47.550;18.828;2022-12-29T03:31:06;16.48;;;5.90;;
72406;SDS011;60396;47.550;18.828;2022-12-29T03:33:36;14.60;;;6.30;;
72406;SDS011;60396;47.550;18.828;2022-12-29T03:36:04;15.37;;;5.70;;
72406;SDS011;60396;47.550;18.828;2022-12-29T03:38:36;11.45;;;5.28;;
72406;SDS011;60396;47.550;18.828;2022-12-29T03:41:09;15.93;;;6.28;;
72406;SDS011;60396;47.550;18.828;2022-12-29T03:43:39;12.95;;;5.65;;
72406;SDS011;60396;47.550;18.828;2022-12-29T03:46:06;14.87;;;5.62;;
72406;SDS011;60396;47.550;18.828;2022-12-29T03:48:34;13.43;;;5.77;;
72406;SDS011;60396;47.550;18.828;2022-12-29T03:51:03;12.45;;;5.50;;
72406;SDS011;60396;47.550;18.828;2022-12-29T03:53:31;12.95;;;5.10;;
72406;SDS011;60396;47.550;18.828;2022-12-29T03:55:59;12.85;;;5.25;;
72406;SDS011;60396;47.550;18.828;2022-12-29T03:58:27;10.70;;;5.28;;
72406;SDS011;60396;47.550;18.828;2022-12-29T04:00:56;12.57;;;5.00;;
72406;SDS011;60396;47.550;18.828;2022-12-29T04:03:24;16.27;;;7.35;;
72406;SDS011;60396;47.550;18.828;2022-12-29T04:05:52;16.30;;;6.60;;
72406;SDS011;60396;47.550;18.828;2022-12-29T04:08:20;16.90;;;6.53;;
72406;SDS011;60396;47.550;18.828;2022-12-29T04:10:49;15.98;;;7.20;;
72406;SDS011;60396;47.550;18.828;2022-12-29T04:13:17;22.73;;;7.70;;
72406;SDS011;60396;47.550;18.828;2022-12-29T04:15:45;16.27;;;7.18;;
72406;SDS011;60396;47.550;18.828;2022-12-29T04:18:13;20.25;;;7.62;;
72406;SDS011;60396;47.550;18.828;2022-12-29T04:20:41;16.52;;;7.53;;
72406;SDS011;60396;47.550;18.828;2022-12-29T04:23:27;15.77;;;7.03;;
72406;SDS011;60396;47.550;18.828;2022-12-29T04:25:56;16.70;;;6.47;;
72406;SDS011;60396;47.550;18.828;2022-12-29T04:28:25;17.55;;;6.75;;
72406;SDS011;60396;47.550;18.828;2022-12-29T04:30:53;16.40;;;7.12;;
72406;SDS011;60396;47.550;18.828;2022-12-29T04:33:21;19.52;;;7.72;;
72406;SDS011;60396;47.550;18.828;2022-12-29T04:35:49;17.62;;;7.32;;
72406;SDS011;60396;47.550;18.828;2022-12-29T04:38:18;17.90;;;7.77;;
72406;SDS011;60396;47.550;18.828;2022-12-29T04:40:47;17.70;;;7.18;;
72406;SDS011;60396;47.550;18.828;2022-12-29T04:43:15;15.85;;;6.68;;
72406;SDS011;60396;47.550;18.828;2022-12-29T04:45:47;16.80;;;6.80;;
72406;SDS011;60396;47.550;18.828;2022-12-29T04:48:15;14.70;;;6.15;;
72406;SDS011;60396;47.550;18.828;2022-12-29T04:50:42;14.93;;;5.80;;
72406;SDS011;60396;47.550;18.828;2022-12-29T04:53:12;13.60;;;5.72;;
72406;SDS011;60396;47.550;18.828;2022-12-29T04:55:40;12.18;;;5.68;;
72406;SDS011;60396;47.550;18.828;2022-12-29T04:58:07;19.75;;;6.75;;
72406;SDS011;60396;47.550;18.828;2022-12-29T05:00:36;17.70;;;8.32;;
72406;SDS011;60396;47.550;18.828;2022-12-29T05:03:04;18.00;;;8.83;;
72406;SDS011;60396;47.550;18.828;2022-12-29T05:05:31;19.92;;;8.25;;
72406;SDS011;60396;47.550;18.828;2022-12-29T05:08:01;18.42;;;7.75;;
72406;SDS011;60396;47.550;18.828;2022-12-29T05:10:30;18.45;;;8.05;;
72406;SDS011;60396;47.550;18.828;2022-12-29T05:13:00;20.92;;;8.23;;
72406;SDS011;60396;47.550;18.828;2022-12-29T05:15:28;19.90;;;7.70;;
72406;SDS011;60396;47.550;18.828;2022-12-29T05:17:57;15.93;;;7.22;;
72406;SDS011;60396;47.550;18.828;2022-12-29T05:20:26;19.83;;;7.40;;
72406;SDS011;60396;47.550;18.828;2022-12-29T05:22:56;17.98;;;7.70;;
72406;SDS011;60396;47.550;18.828;2022-12-29T05:25:23;20.33;;;8.20;;
72406;SDS011;60396;47.550;18.828;2022-12-29T05:27:51;19.03;;;8.50;;
72406;SDS011;60396;47.550;18.828;2022-12-29T05:30:19;17.83;;;8.35;;
72406;SDS011;60396;47.550;18.828;2022-12-29T05:32:47;19.40;;;7.57;;
72406;SDS011;60396;47.550;18.828;2022-12-29T05:35:15;15.13;;;7.15;;
72406;SDS011;60396;47.550;18.828;2022-12-29T05:37:43;20.85;;;9.85;;
72406;SDS011;60396;47.550;18.828;2022-12-29T05:40:11;22.07;;;9.67;;
72406;SDS011;60396;47.550;18.828;2022-12-29T05:42:39;21.12;;;9.18;;
72406;SDS011;60396;47.550;18.828;2022-12-29T05:45:08;18.55;;;8.90;;
72406;SDS011;60396;47.550;18.828;2022-12-29T05:47:36;19.40;;;9.18;;
72406;SDS011;60396;47.550;18.828;2022-12-29T05:50:05;23.90;;;9.73;;
72406;SDS011;60396;47.550;18.828;2022-12-29T05:52:33;19.87;;;9.20;;
72406;SDS011;60396;47.550;18.828;2022-12-29T05:55:00;18.55;;;8.73;;
72406;SDS011;60396;47.550;18.828;2022-12-29T05:57:29;20.00;;;9.68;;
72406;SDS011;60396;47.550;18.828;2022-12-29T05:59:58;21.17;;;9.48;;
72406;SDS011;60396;47.550;18.828;2022-12-29T06:02:26;21.52;;;10.35;;
72406;SDS011;60396;47.550;18.828;2022-12-29T06:04:54;24.43;;;10.53;;
72406;SDS011;60396;47.550;18.828;2022-12-29T06:07:22;22.80;;;11.18;;
72406;SDS011;60396;47.550;18.828;2022-12-29T06:09:50;21.50;;;10.00;;
72406;SDS011;60396;47.550;18.828;2022-12-29T06:12:19;24.90;;;11.10;;
72406;SDS011;60396;47.550;18.828;2022-12-29T06:14:47;25.50;;;11.07;;
72406;SDS011;60396;47.550;18.828;2022-12-29T06:17:15;25.23;;;11.90;;
72406;SDS011;60396;47.550;18.828;2022-12-29T06:19:44;22.70;;;11.73;;
72406;SDS011;60396;47.550;18.828;2022-12-29T06:22:11;26.62;;;13.00;;
72406;SDS011;60396;47.550;18.828;2022-12-29T06:24:39;29.00;;;13.77;;
72406;SDS011;60396;47.550;18.828;2022-12-29T06:27:07;25.05;;;12.15;;
72406;SDS011;60396;47.550;18.828;2022-12-29T06:29:35;22.40;;;11.20;;
72406;SDS011;60396;47.550;18.828;2022-12-29T06:32:04;29.30;;;12.45;;
72406;SDS011;60396;47.550;18.828;2022-12-29T06:34:32;30.55;;;13.57;;
72406;SDS011;60396;47.550;18.828;2022-12-29T06:37:00;33.42;;;13.90;;
72406;SDS011;60396;47.550;18.828;2022-12-29T06:39:28;30.45;;;13.88;;
72406;SDS011;60396;47.550;18.828;2022-12-29T06:41:58;34.27;;;13.17;;
72406;SDS011;60396;47.550;18.828;2022-12-29T06:44:26;28.20;;;12.85;;
72406;SDS011;60396;47.550;18.828;2022-12-29T06:46:54;30.52;;;14.02;;
72406;SDS011;60396;47.550;18.828;2022-12-29T06:49:22;26.55;;;12.60;;
72406;SDS011;60396;47.550;18.828;2022-12-29T06:51:50;32.35;;;13.57;;
72406;SDS011;60396;47.550;18.828;2022-12-29T06:54:18;22.03;;;11.70;;
72406;SDS011;60396;47.550;18.828;2022-12-29T06:56:46;27.08;;;12.82;;
72406;SDS011;60396;47.550;18.828;2022-12-29T06:59:13;26.62;;;12.35;;
72406;SDS011;60396;47.550;18.828;2022-12-29T07:01:41;26.02;;;13.27;;
72406;SDS011;60396;47.550;18.828;2022-12-29T07:04:09;32.55;;;15.25;;
72406;SDS011;60396;47.550;18.828;2022-12-29T07:06:36;29.70;;;14.60;;
72406;SDS011;60396;47.550;18.828;2022-12-29T07:09:04;32.13;;;14.75;;
72406;SDS011;60396;47.550;18.828;2022-12-29T07:11:32;31.35;;;14.10;;
72406;SDS011;60396;47.550;18.828;2022-12-29T07:14:00;29.65;;;14.23;;
72406;SDS011;60396;47.550;18.828;2022-12-29T07:16:28;37.15;;;15.52;;
72406;SDS011;60396;47.550;18.828;2022-12-29T07:18:58;30.73;;;14.17;;
72406;SDS011;60396;47.550;18.828;2022-12-29T07:21:26;31.62;;;14.98;;
72406;SDS011;60396;47.550;18.828;2022-12-29T07:23:54;33.90;;;14.20;;
72406;SDS011;60396;47.550;18.828;2022-12-29T07:26:22;27.13;;;13.68;;
72406;SDS011;60396;47.550;18.828;2022-12-29T07:28:50;31.10;;;15.27;;
72406;SDS011;60396;47.550;18.828;2022-12-29T07:31:19;30.87;;;15.80;;
72406;SDS011;60396;47.550;18.828;2022-12-29T07:33:48;29.60;;;13.93;;
72406;SDS011;60396;47.550;18.828;2022-12-29T07:36:16;19.77;;;9.32;;
72406;SDS011;60396;47.550;18.828;2022-12-29T07:38:44;23.85;;;9.38;;
72406;SDS011;60396;47.550;18.828;2022-12-29T07:41:12;19.92;;;9.02;;
72406;SDS011;60396;47.550;18.828;2022-12-29T07:43:40;42.53;;;21.77;;
72406;SDS011;60396;47.550;18.828;2022-12-29T07:46:10;43.97;;;23.20;;
72406;SDS011;60396;47.550;18.828;2022-12-29T07:48:58;40.00;;;18.37;;
72406;SDS011;60396;47.550;18.828;2022-12-29T07:51:26;45.30;;;18.90;;
72406;SDS011;60396;47.550;18.828;2022-12-29T07:53:53;45.58;;;20.67;;
72406;SDS011;60396;47.550;18.828;2022-12-29T07:56:21;49.57;;;20.33;;
72406;SDS011;60396;47.550;18.828;2022-12-29T07:58:49;46.72;;;19.95;;
72406;SDS011;60396;47.550;18.828;2022-12-29T08:01:17;40.42;;;18.50;;
72406;SDS011;60396;47.550;18.828;2022-12-29T08:03:45;40.85;;;19.75;;
72406;SDS011;60396;47.550;18.828;2022-12-29T08:06:17;40.55;;;18.10;;
72406;SDS011;60396;47.550;18.828;2022-12-29T08:08:45;40.13;;;16.37;;
72406;SDS011;60396;47.550;18.828;2022-12-29T08:11:13;37.78;;;18.60;;
72406;SDS011;60396;47.550;18.828;2022-12-29T08:13:41;32.35;;;17.08;;
72406;SDS011;60396;47.550;18.828;2022-12-29T08:16:09;34.00;;;16.55;;
72406;SDS011;60396;47.550;18.828;2022-12-29T08:18:37;37.47;;;14.98;;
72406;SDS011;60396;47.550;18.828;2022-12-29T08:21:04;26.47;;;13.83;;
72406;SDS011;60396;47.550;18.828;2022-12-29T08:23:33;33.17;;;16.20;;
72406;SDS011;60396;47.550;18.828;2022-12-29T08:26:01;40.78;;;21.95;;
72406;SDS011;60396;47.550;18.828;2022-12-29T08:28:31;41.80;;;18.77;;
72406;SDS011;60396;47.550;18.828;2022-12-29T08:30:59;43.45;;;18.90;;
72406;SDS011;60396;47.550;18.828;2022-12-29T08:33:28;43.40;;;19.97;;
72406;SDS011;60396;47.550;18.828;2022-12-29T08:36:03;41.28;;;18.60;;
72406;SDS011;60396;47.550;18.828;2022-12-29T08:38:33;39.40;;;18.70;;
72406;SDS011;60396;47.550;18.828;2022-12-29T08:41:00;40.22;;;18.50;;
72406;SDS011;60396;47.550;18.828;2022-12-29T08:43:28;37.92;;;19.45;;
72406;SDS011;60396;47.550;18.828;2022-12-29T08:45:57;41.50;;;18.40;;
72406;SDS011;60396;47.550;18.828;2022-12-29T08:48:26;41.63;;;19.12;;
72406;SDS011;60396;47.550;18.828;2022-12-29T08:50:53;41.60;;;19.67;;
72406;SDS011;60396;47.550;18.828;2022-12-29T08:53:21;34.63;;;17.52;;
72406;SDS011;60396;47.550;18.828;2022-12-29T08:55:54;41.85;;;17.83;;
72406;SDS011;60396;47.550;18.828;2022-12-29T08:58:33;40.57;;;20.17;;
72406;SDS011;60396;47.550;18.828;2022-12-29T09:01:01;35.03;;;18.08;;
72406;SDS011;60396;47.550;18.828;2022-12-29T09:03:28;33.45;;;17.65;;
72406;SDS011;60396;47.550;18.828;2022-12-29T09:06:16;38.72;;;18.30;;
72406;SDS011;60396;47.550;18.828;2022-12-29T09:08:44;30.95;;;14.52;;
72406;SDS011;60396;47.550;18.828;2022-12-29T09:11:14;25.00;;;11.83;;
72406;SDS011;60396;47.550;18.828;2022-12-29T09:13:47;22.15;;;10.60;;
72406;SDS011;60396;47.550;18.828;2022-12-29T09:16:15;22.58;;;10.45;;
72406;SDS011;60396;47.550;18.828;2022-12-29T09:18:44;20.00;;;9.23;;
72406;SDS011;60396;47.550;18.828;2022-12-29T09:21:12;19.55;;;9.45;;
72406;SDS011;60396;47.550;18.828;2022-12-29T09:23:40;19.27;;;8.37;;
72406;SDS011;60396;47.550;18.828;2022-12-29T09:26:07;17.75;;;9.13;;
72406;SDS011;60396;47.550;18.828;2022-12-29T09:28:36;18.50;;;8.40;;
72406;SDS011;60396;47.550;18.828;2022-12-29T09:31:03;16.65;;;8.13;;
72406;SDS011;60396;47.550;18.828;2022-12-29T09:33:31;18.15;;;7.70;;
72406;SDS011;60396;47.550;18.828;2022-12-29T09:36:02;17.63;;;7.10;;
72406;SDS011;60396;47.550;18.828;2022-12-29T09:38:30;17.80;;;7.85;;
72406;SDS011;60396;47.550;18.828;2022-12-29T09:41:04;21.77;;;8.13;;
72406;SDS011;60396;47.550;18.828;2022-12-29T09:46:38;25.50;;;13.43;;
72406;SDS011;60396;47.550;18.828;2022-12-29T09:49:13;30.13;;;13.97;;
72406;SDS011;60396;47.550;18.828;2022-12-29T09:51:54;27.92;;;14.27;;
72406;SDS011;60396;47.550;18.828;2022-12-29T09:54:28;27.60;;;12.75;;
72406;SDS011;60396;47.550;18.828;2022-12-29T09:57:00;23.45;;;12.23;;
72406;SDS011;60396;47.550;18.828;2022-12-29T09:59:41;26.27;;;13.60;;
72406;SDS011;60396;47.550;18.828;2022-12-29T10:04:59;28.40;;;13.80;;
72406;SDS011;60396;47.550;18.828;2022-12-29T10:07:36;31.75;;;13.13;;
72406;SDS011;60396;47.550;18.828;2022-12-29T10:15:29;24.63;;;12.77;;
72406;SDS011;60396;47.550;18.828;2022-12-29T10:20:53;23.48;;;12.30;;
72406;SDS011;60396;47.550;18.828;2022-12-29T10:25:59;29.58;;;14.48;;
72406;SDS011;60396;47.550;18.828;2022-12-29T10:28:36;27.73;;;13.97;;
72406;SDS011;60396;47.550;18.828;2022-12-29T10:31:09;25.77;;;11.32;;
72406;SDS011;60396;47.550;18.828;2022-12-29T10:33:44;23.33;;;11.68;;
72406;SDS011;60396;47.550;18.828;2022-12-29T10:36:13;21.27;;;9.48;;
72406;SDS011;60396;47.550;18.828;2022-12-29T10:38:46;24.80;;;12.40;;
72406;SDS011;60396;47.550;18.828;2022-12-29T10:41:32;23.43;;;11.70;;
72406;SDS011;60396;47.550;18.828;2022-12-29T10:44:04;19.55;;;8.57;;
72406;SDS011;60396;47.550;18.828;2022-12-29T10:46:33;21.42;;;9.45;;
72406;SDS011;60396;47.550;18.828;2022-12-29T10:49:02;28.25;;;13.07;;
72406;SDS011;60396;47.550;18.828;2022-12-29T10:51:32;27.08;;;14.70;;
72406;SDS011;60396;47.550;18.828;2022-12-29T10:54:05;27.73;;;13.40;;
72406;SDS011;60396;47.550;18.828;2022-12-29T10:56:54;23.52;;;10.77;;
72406;SDS011;60396;47.550;18.828;2022-12-29T10:59:26;20.62;;;10.18;;
72406;SDS011;60396;47.550;18.828;2022-12-29T11:07:08;21.60;;;10.87;;
72406;SDS011;60396;47.550;18.828;2022-12-29T11:09:42;26.08;;;11.50;;
72406;SDS011;60396;47.550;18.828;2022-12-29T11:12:18;22.15;;;11.02;;
72406;SDS011;60396;47.550;18.828;2022-12-29T11:14:46;25.35;;;12.52;;
72406;SDS011;60396;47.550;18.828;2022-12-29T11:17:15;24.52;;;12.05;;
72406;SDS011;60396;47.550;18.828;2022-12-29T11:19:44;24.43;;;11.57;;
72406;SDS011;60396;47.550;18.828;2022-12-29T11:22:20;22.37;;;10.48;;
72406;SDS011;60396;47.550;18.828;2022-12-29T11:24:50;19.15;;;10.18;;
72406;SDS011;60396;47.550;18.828;2022-12-29T11:27:20;22.35;;;11.25;;
72406;SDS011;60396;47.550;18.828;2022-12-29T11:29:51;22.50;;;11.95;;
72406;SDS011;60396;47.550;18.828;2022-12-29T11:32:24;17.70;;;9.20;;
72406;SDS011;60396;47.550;18.828;2022-12-29T11:34:56;17.45;;;9.48;;
72406;SDS011;60396;47.550;18.828;2022-12-29T11:40:14;19.00;;;7.82;;
72406;SDS011;60396;47.550;18.828;2022-12-29T11:42:48;36.45;;;16.85;;
72406;SDS011;60396;47.550;18.828;2022-12-29T11:45:25;24.23;;;11.30;;
72406;SDS011;60396;47.550;18.828;2022-12-29T11:47:55;20.05;;;8.75;;
72406;SDS011;60396;47.550;18.828;2022-12-29T11:50:26;21.85;;;8.10;;
72406;SDS011;60396;47.550;18.828;2022-12-29T11:52:58;17.75;;;8.50;;
72406;SDS011;60396;47.550;18.828;2022-12-29T11:55:27;18.05;;;9.30;;
72406;SDS011;60396;47.550;18.828;2022-12-29T11:57:57;18.43;;;9.23;;
72406;SDS011;60396;47.550;18.828;2022-12-29T12:00:28;19.33;;;8.88;;
72406;SDS011;60396;47.550;18.828;2022-12-29T12:02:59;15.43;;;8.13;;
72406;SDS011;60396;47.550;18.828;2022-12-29T12:05:37;20.45;;;8.55;;
72406;SDS011;60396;47.550;18.828;2022-12-29T12:11:06;17.60;;;8.97;;
72406;SDS011;60396;47.550;18.828;2022-12-29T12:16:46;19.20;;;9.95;;
72406;SDS011;60396;47.550;18.828;2022-12-29T12:21:46;19.25;;;10.35;;
72406;SDS011;60396;47.550;18.828;2022-12-29T12:35:20;16.90;;;8.40;;
72406;SDS011;60396;47.550;18.828;2022-12-29T12:38:18;19.00;;;8.87;;
72406;SDS011;60396;47.550;18.828;2022-12-29T12:43:55;17.23;;;8.98;;
72406;SDS011;60396;47.550;18.828;2022-12-29T13:00:31;20.60;;;10.10;;
72406;SDS011;60396;47.550;18.828;2022-12-29T13:03:10;16.60;;;9.18;;
72406;SDS011;60396;47.550;18.828;2022-12-29T13:06:02;19.50;;;9.47;;
72406;SDS011;60396;47.550;18.828;2022-12-29T13:08:38;18.98;;;9.75;;
72406;SDS011;60396;47.550;18.828;2022-12-29T13:11:28;19.25;;;9.90;;
72406;SDS011;60396;47.550;18.828;2022-12-29T13:17:03;18.77;;;10.18;;
72406;SDS011;60396;47.550;18.828;2022-12-29T13:25:07;25.30;;;12.52;;
72406;SDS011;60396;47.550;18.828;2022-12-29T13:27:43;20.88;;;11.65;;
72406;SDS011;60396;47.550;18.828;2022-12-29T13:30:17;24.23;;;12.35;;
72406;SDS011;60396;47.550;18.828;2022-12-29T13:38:19;28.33;;;13.48;;
72406;SDS011;60396;47.550;18.828;2022-12-29T13:40:53;20.80;;;10.82;;
72406;SDS011;60396;47.550;18.828;2022-12-29T13:43:23;22.90;;;11.35;;
72406;SDS011;60396;47.550;18.828;2022-12-29T13:46:03;18.70;;;9.67;;
72406;SDS011;60396;47.550;18.828;2022-12-29T13:48:43;21.67;;;11.85;;
72406;SDS011;60396;47.550;18.828;2022-12-29T13:51:15;22.30;;;11.00;;
72406;SDS011;60396;47.550;18.828;2022-12-29T14:01:59;25.15;;;11.88;;
72406;SDS011;60396;47.550;18.828;2022-12-29T14:04:35;24.20;;;12.40;;
72406;SDS011;60396;47.550;18.828;2022-12-29T14:07:04;25.65;;;12.32;;
72406;SDS011;60396;47.550;18.828;2022-12-29T14:09:47;22.65;;;11.90;;
72406;SDS011;60396;47.550;18.828;2022-12-29T14:12:27;20.77;;;12.40;;
72406;SDS011;60396;47.550;18.828;2022-12-29T14:15:13;21.55;;;12.48;;
72406;SDS011;60396;47.550;18.828;2022-12-29T14:17:43;23.08;;;12.25;;
72406;SDS011;60396;47.550;18.828;2022-12-29T14:20:21;24.95;;;12.60;;
72406;SDS011;60396;47.550;18.828;2022-12-29T14:22:57;24.23;;;12.98;;
72406;SDS011;60396;47.550;18.828;2022-12-29T14:28:23;23.83;;;12.55;;
72406;SDS011;60396;47.550;18.828;2022-12-29T14:30:56;23.02;;;12.60;;
72406;SDS011;60396;47.550;18.828;2022-12-29T14:33:26;27.55;;;13.88;;
72406;SDS011;60396;47.550;18.828;2022-12-29T14:35:57;25.60;;;14.68;;
72406;SDS011;60396;47.550;18.828;2022-12-29T14:38:54;26.30;;;13.80;;
72406;SDS011;60396;47.550;18.828;2022-12-29T14:43:57;29.23;;;14.15;;
72406;SDS011;60396;47.550;18.828;2022-12-29T14:46:49;40.65;;;26.70;;
72406;SDS011;60396;47.550;18.828;2022-12-29T14:49:24;27.92;;;17.15;;
72406;SDS011;60396;47.550;18.828;2022-12-29T14:52:06;26.90;;;15.80;;
72406;SDS011;60396;47.550;18.828;2022-12-29T14:54:42;27.75;;;15.00;;
72406;SDS011;60396;47.550;18.828;2022-12-29T14:57:21;29.10;;;16.90;;
72406;SDS011;60396;47.550;18.828;2022-12-29T14:59:53;32.72;;;17.65;;
72406;SDS011;60396;47.550;18.828;2022-12-29T15:02:24;26.65;;;15.00;;
72406;SDS011;60396;47.550;18.828;2022-12-29T15:04:54;25.40;;;14.33;;
72406;SDS011;60396;47.550;18.828;2022-12-29T15:07:27;24.15;;;13.93;;
72406;SDS011;60396;47.550;18.828;2022-12-29T15:10:05;21.17;;;12.32;;
72406;SDS011;60396;47.550;18.828;2022-12-29T15:12:43;25.12;;;11.65;;
72406;SDS011;60396;47.550;18.828;2022-12-29T15:15:27;22.40;;;11.48;;
72406;SDS011;60396;47.550;18.828;2022-12-29T15:17:57;20.47;;;10.90;;
72406;SDS011;60396;47.550;18.828;2022-12-29T15:20:51;22.77;;;11.18;;
72406;SDS011;60396;47.550;18.828;2022-12-29T15:23:21;25.83;;;11.82;;
72406;SDS011;60396;47.550;18.828;2022-12-29T15:25:56;26.15;;;13.18;;
72406;SDS011;60396;47.550;18.828;2022-12-29T15:28:26;26.65;;;14.20;;
72406;SDS011;60396;47.550;18.828;2022-12-29T15:30:55;25.20;;;12.30;;
72406;SDS011;60396;47.550;18.828;2022-12-29T15:33:29;27.25;;;14.25;;
72406;SDS011;60396;47.550;18.828;2022-12-29T15:35:57;24.50;;;13.90;;
72406;SDS011;60396;47.550;18.828;2022-12-29T15:38:30;27.48;;;15.20;;
72406;SDS011;60396;47.550;18.828;2022-12-29T15:41:11;27.02;;;15.07;;
72406;SDS011;60396;47.550;18.828;2022-12-29T15:46:44;30.90;;;16.40;;
72406;SDS011;60396;47.550;18.828;2022-12-29T15:49:13;33.10;;;16.70;;
72406;SDS011;60396;47.550;18.828;2022-12-29T15:51:41;34.67;;;18.62;;
72406;SDS011;60396;47.550;18.828;2022-12-29T15:54:15;30.40;;;16.75;;
72406;SDS011;60396;47.550;18.828;2022-12-29T15:56:49;29.77;;;16.77;;
72406;SDS011;60396;47.550;18.828;2022-12-29T15:59:24;32.55;;;17.75;;
72406;SDS011;60396;47.550;18.828;2022-12-29T16:01:56;32.78;;;18.20;;
72406;SDS011;60396;47.550;18.828;2022-12-29T16:04:25;34.13;;;17.35;;
72406;SDS011;60396;47.550;18.828;2022-12-29T16:11:59;34.75;;;17.98;;
72406;SDS011;60396;47.550;18.828;2022-12-29T16:14:49;33.65;;;17.15;;
72406;SDS011;60396;47.550;18.828;2022-12-29T16:17:22;33.63;;;17.90;;
72406;SDS011;60396;47.550;18.828;2022-12-29T16:19:56;31.08;;;17.70;;
72406;SDS011;60396;47.550;18.828;2022-12-29T16:22:30;32.93;;;17.87;;
72406;SDS011;60396;47.550;18.828;2022-12-29T16:25:03;33.13;;;16.98;;
72406;SDS011;60396;47.550;18.828;2022-12-29T16:27:37;33.60;;;17.58;;
72406;SDS011;60396;47.550;18.828;2022-12-29T16:30:17;31.92;;;17.00;;
72406;SDS011;60396;47.550;18.828;2022-12-29T16:32:55;34.00;;;17.80;;
72406;SDS011;60396;47.550;18.828;2022-12-29T16:35:28;36.93;;;18.37;;
72406;SDS011;60396;47.550;18.828;2022-12-29T16:38:21;38.70;;;20.90;;
72406;SDS011;60396;47.550;18.828;2022-12-29T16:40:54;44.58;;;22.90;;
72406;SDS011;60396;47.550;18.828;2022-12-29T16:43:30;46.42;;;23.80;;
72406;SDS011;60396;47.550;18.828;2022-12-29T16:48:32;42.53;;;22.63;;
72406;SDS011;60396;47.550;18.828;2022-12-29T16:51:06;43.80;;;23.25;;
72406;SDS011;60396;47.550;18.828;2022-12-29T16:53:47;35.30;;;19.12;;
72406;SDS011;60396;47.550;18.828;2022-12-29T16:56:17;34.72;;;18.52;;
72406;SDS011;60396;47.550;18.828;2022-12-29T16:58:50;32.38;;;18.30;;
72406;SDS011;60396;47.550;18.828;2022-12-29T17:01:21;34.67;;;18.77;;
72406;SDS011;60396;47.550;18.828;2022-12-29T17:03:50;30.48;;;18.05;;